Terminal Aerodrome Forecast
Issued by NWS

Home | Current Version | Previous Version | Text Only | Print | Product List | Glossary On
Versions: 1 2 3 4 5 6 7 8 9 10 11 12 13 14 15 16 17 18 19 20 21 22 23 24 25 26 27 28 29 30 31 32 33 34 35 36 37 38 39 40 41 42
000
FTUS41 KRNK 031726
TAFLWB
TAF
KLWB 031726Z 0318/0418 09003KT P6SM SCT011 OVC021
      TEMPO 0318/0319 4SM -RA BR OVC011
     FM040200 07003KT 2SM BR OVC008
     FM040900 09003KT 3/4SM BR OVC003
     FM041300 00000KT 2SM BR SCT004 OVC009
     FM041500 13003KT 6SM HZ SCT008 OVC020=

USA.gov is the U.S. government's official web portal to all federal, state and local government web resources and services.